createdAt,value
2023-01-30T00:01:04.506Z,17.67
2023-01-30T00:03:31.805Z,18.00
2023-01-30T00:05:59.082Z,17.93
2023-01-30T00:08:26.166Z,20.23
2023-01-30T00:10:53.228Z,19.03
2023-01-30T00:13:20.396Z,19.40
2023-01-30T00:15:48.543Z,19.97
2023-01-30T00:18:15.709Z,19.13
2023-01-30T00:20:42.787Z,18.13
2023-01-30T00:23:09.910Z,19.27
2023-01-30T00:25:37.143Z,18.67
2023-01-30T00:28:04.487Z,18.67
2023-01-30T00:30:31.647Z,18.67
2023-01-30T00:32:59.593Z,19.57
2023-01-30T00:35:28.855Z,18.87
2023-01-30T00:37:58.028Z,18.33
2023-01-30T00:40:29.696Z,19.30
2023-01-30T00:43:15.253Z,16.80
2023-01-30T00:46:03.800Z,17.50
2023-01-30T00:48:31.326Z,17.53
2023-01-30T00:50:58.860Z,18.90
2023-01-30T00:53:26.862Z,18.37
2023-01-30T00:55:55.235Z,17.90
2023-01-30T00:58:24.357Z,18.73
2023-01-30T01:00:51.982Z,17.50
2023-01-30T01:03:20.019Z,19.30
2023-01-30T01:05:47.356Z,20.43
2023-01-30T01:08:15.323Z,18.87
2023-01-30T01:10:42.706Z,18.53
2023-01-30T01:13:10.736Z,19.17
2023-01-30T01:15:38.324Z,19.97
2023-01-30T01:18:06.182Z,19.57
2023-01-30T01:20:33.625Z,18.47
2023-01-30T01:23:00.804Z,18.63
2023-01-30T01:25:27.899Z,19.80
2023-01-30T01:27:55.678Z,19.60
2023-01-30T01:30:22.850Z,19.37
2023-01-30T01:32:50.060Z,16.70
2023-01-30T01:35:17.517Z,19.63
2023-01-30T01:37:44.953Z,18.27
2023-01-30T01:40:37.762Z,18.63
2023-01-30T01:43:34.814Z,19.37
2023-01-30T01:46:17.908Z,19.43
2023-01-30T01:48:49.413Z,19.93
2023-01-30T01:51:22.661Z,19.20
2023-01-30T01:54:16.474Z,18.37
2023-01-30T01:56:47.925Z,19.70
2023-01-30T01:59:25.550Z,20.23
2023-01-30T02:01:56.784Z,20.10
2023-01-30T02:04:44.581Z,20.20
2023-01-30T02:07:11.842Z,20.77
2023-01-30T02:09:39.011Z,21.60
2023-01-30T02:12:06.804Z,21.60
2023-01-30T02:14:34.603Z,20.93
2023-01-30T02:17:01.707Z,22.10
2023-01-30T02:19:50.971Z,21.70
2023-01-30T02:23:04.088Z,20.77
2023-01-30T02:26:16.216Z,21.10
2023-01-30T02:29:22.280Z,21.23
2023-01-30T02:32:14.852Z,21.13
2023-01-30T02:35:25.057Z,21.60
2023-01-30T02:38:19.518Z,21.43
2023-01-30T02:41:20.921Z,22.60
2023-01-30T02:44:06.835Z,22.70
2023-01-30T02:47:04.053Z,20.27
2023-01-30T02:49:45.301Z,22.43
2023-01-30T02:52:13.805Z,19.23
2023-01-30T02:54:40.947Z,21.10
2023-01-30T02:57:24.553Z,19.47
2023-01-30T03:00:03.008Z,20.43
2023-01-30T03:03:23.584Z,21.60
2023-01-30T03:06:37.391Z,20.53
2023-01-30T03:09:30.898Z,19.90
2023-01-30T03:12:18.099Z,21.20
2023-01-30T03:14:59.320Z,19.50
2023-01-30T03:17:28.964Z,18.73
2023-01-30T03:19:57.010Z,17.73
2023-01-30T03:22:24.477Z,18.80
2023-01-30T03:24:53.710Z,17.20
2023-01-30T03:27:22.704Z,16.53
2023-01-30T03:29:50.311Z,15.87
2023-01-30T03:32:17.472Z,14.40
2023-01-30T03:34:44.781Z,16.93
2023-01-30T03:37:12.045Z,15.50
2023-01-30T03:39:39.245Z,18.07
2023-01-30T03:42:07.284Z,17.93
2023-01-30T03:44:34.626Z,16.97
2023-01-30T03:47:02.423Z,16.10
2023-01-30T03:49:29.537Z,15.43
2023-01-30T03:51:57.715Z,16.30
2023-01-30T03:54:24.827Z,14.87
2023-01-30T03:56:51.959Z,12.47
2023-01-30T03:59:19.112Z,12.67
2023-01-30T04:01:52.865Z,12.47
2023-01-30T04:04:20.139Z,12.70
2023-01-30T04:06:48.320Z,12.10
2023-01-30T04:09:15.732Z,14.13
2023-01-30T04:11:49.684Z,15.73
2023-01-30T04:14:18.720Z,15.83
2023-01-30T04:17:04.783Z,14.87
2023-01-30T04:19:49.518Z,15.10
2023-01-30T04:22:17.714Z,16.73
2023-01-30T04:24:44.915Z,14.03
2023-01-30T04:27:12.127Z,15.83
2023-01-30T04:29:51.236Z,14.93
2023-01-30T04:32:18.463Z,15.10
2023-01-30T04:34:45.637Z,15.90
2023-01-30T04:37:13.452Z,16.20
2023-01-30T04:39:40.883Z,13.30
2023-01-30T04:42:08.271Z,14.03
2023-01-30T04:44:42.815Z,12.90
2023-01-30T04:47:17.949Z,11.80
2023-01-30T04:49:45.182Z,11.70
2023-01-30T04:52:14.850Z,15.67
2023-01-30T04:54:41.953Z,18.17
2023-01-30T04:57:09.090Z,16.60
2023-01-30T04:59:36.260Z,19.50
2023-01-30T05:02:06.356Z,18.57
2023-01-30T05:04:33.606Z,18.20
2023-01-30T05:07:00.696Z,19.83
2023-01-30T05:09:27.816Z,19.47
2023-01-30T05:11:54.876Z,22.63
2023-01-30T05:14:21.969Z,21.77
2023-01-30T05:16:49.087Z,22.13
2023-01-30T05:19:16.195Z,21.67
2023-01-30T05:21:43.356Z,22.03
2023-01-30T05:24:10.564Z,22.50
2023-01-30T05:26:37.761Z,21.33
2023-01-30T05:29:04.976Z,22.37
2023-01-30T05:31:32.047Z,22.70
2023-01-30T05:33:59.210Z,22.33
2023-01-30T05:36:26.298Z,22.50
2023-01-30T05:38:53.490Z,20.73
2023-01-30T05:41:20.624Z,22.17
2023-01-30T05:43:51.178Z,22.00
2023-01-30T05:46:18.535Z,20.23
2023-01-30T05:48:45.784Z,22.00
2023-01-30T05:51:21.619Z,21.60
2023-01-30T05:53:49.043Z,21.67
2023-01-30T05:56:17.202Z,23.50
2023-01-30T05:58:44.651Z,21.63
2023-01-30T06:01:13.238Z,22.33
2023-01-30T06:03:40.324Z,20.70
2023-01-30T06:06:07.856Z,21.73
2023-01-30T06:08:35.004Z,21.00
2023-01-30T06:11:08.269Z,24.67
2023-01-30T06:13:36.045Z,23.73
2023-01-30T06:16:03.200Z,22.37
2023-01-30T06:18:30.393Z,23.50
2023-01-30T06:20:57.508Z,23.37
2023-01-30T06:23:24.861Z,21.97
2023-01-30T06:25:53.100Z,21.47
2023-01-30T06:28:20.800Z,24.53
2023-01-30T06:30:48.268Z,23.40
2023-01-30T06:33:15.774Z,23.90
2023-01-30T06:35:44.082Z,24.07
2023-01-30T06:38:13.518Z,23.77
2023-01-30T06:40:50.346Z,24.20
2023-01-30T06:43:17.665Z,23.27
2023-01-30T06:45:44.953Z,24.53
2023-01-30T06:48:12.292Z,23.57
2023-01-30T06:50:39.365Z,22.57
2023-01-30T06:53:07.892Z,24.57
2023-01-30T06:55:36.461Z,23.77
2023-01-30T06:58:06.387Z,22.53
2023-01-30T07:00:34.583Z,25.40
2023-01-30T07:03:01.858Z,22.90
2023-01-30T07:05:29.345Z,25.07
2023-01-30T07:07:56.542Z,23.70
2023-01-30T07:10:24.274Z,22.33
2023-01-30T07:12:51.400Z,23.40
2023-01-30T07:15:18.881Z,23.07
2023-01-30T07:17:46.497Z,23.07
2023-01-30T07:20:13.833Z,21.93
2023-01-30T07:22:41.059Z,22.70
2023-01-30T07:25:08.896Z,21.87
2023-01-30T07:27:36.256Z,22.60
2023-01-30T07:30:03.675Z,22.20
2023-01-30T07:32:31.160Z,24.27
2023-01-30T07:34:58.257Z,22.53
2023-01-30T07:37:25.367Z,21.97
2023-01-30T07:39:52.474Z,20.90
2023-01-30T07:42:19.613Z,18.90
2023-01-30T07:44:46.683Z,20.23
2023-01-30T07:47:13.916Z,18.40
2023-01-30T07:49:41.141Z,17.20
2023-01-30T07:52:08.231Z,15.97
2023-01-30T07:54:39.196Z,15.47
2023-01-30T07:57:06.391Z,14.03
2023-01-30T07:59:33.466Z,14.67
2023-01-30T08:02:00.589Z,13.93
2023-01-30T08:04:27.743Z,14.17
2023-01-30T08:06:55.020Z,13.37
2023-01-30T08:09:22.091Z,14.43
2023-01-30T08:11:49.219Z,14.00
2023-01-30T08:14:16.327Z,14.30
2023-01-30T08:16:43.600Z,14.10
2023-01-30T08:19:10.685Z,13.77
2023-01-30T08:21:37.775Z,11.23
2023-01-30T08:24:05.613Z,13.07
2023-01-30T08:26:32.818Z,15.97
2023-01-30T08:28:59.988Z,15.20
2023-01-30T08:31:27.152Z,16.77
2023-01-30T08:33:54.283Z,17.97
2023-01-30T08:36:23.024Z,16.00
2023-01-30T08:38:50.591Z,15.57
2023-01-30T08:41:17.702Z,16.17
2023-01-30T08:43:44.744Z,16.73
2023-01-30T08:46:11.936Z,16.47
2023-01-30T08:48:49.473Z,19.47
2023-01-30T08:51:17.532Z,19.50
2023-01-30T08:53:44.726Z,16.93
2023-01-30T08:56:11.794Z,16.77
2023-01-30T08:58:38.889Z,17.60
2023-01-30T09:01:07.127Z,17.17
2023-01-30T09:03:34.592Z,17.77
2023-01-30T09:06:01.907Z,18.57
2023-01-30T09:08:29.119Z,17.57
2023-01-30T09:11:04.843Z,18.03
2023-01-30T09:13:32.759Z,15.43
2023-01-30T09:16:00.099Z,17.43
2023-01-30T09:18:27.339Z,16.93
2023-01-30T09:21:04.218Z,14.03
2023-01-30T09:23:31.995Z,17.00
2023-01-30T09:26:00.476Z,17.03
2023-01-30T09:28:27.591Z,17.53
2023-01-30T09:31:00.791Z,20.00
2023-01-30T09:33:28.295Z,18.13
2023-01-30T09:35:56.201Z,18.37
2023-01-30T09:38:23.354Z,18.27
2023-01-30T09:41:32.653Z,18.70
2023-01-30T09:44:43.920Z,17.97
2023-01-30T09:47:21.927Z,18.40
2023-01-30T09:50:20.548Z,17.07
2023-01-30T09:53:20.711Z,17.70
2023-01-30T09:55:48.706Z,18.07
2023-01-30T09:58:21.394Z,17.00
2023-01-30T10:00:52.587Z,16.73
2023-01-30T10:03:24.727Z,16.10
2023-01-30T10:06:14.155Z,17.93
2023-01-30T10:09:11.227Z,16.60
2023-01-30T10:12:04.164Z,17.97
2023-01-30T10:15:20.400Z,15.17
2023-01-30T10:18:29.880Z,15.90
2023-01-30T10:30:00.517Z,13.87
2023-01-30T10:32:44.184Z,13.33
2023-01-30T10:35:18.702Z,16.83
2023-01-30T10:53:37.147Z,16.90
2023-01-30T10:56:19.164Z,16.10
2023-01-30T10:58:58.810Z,16.57
2023-01-30T11:01:50.931Z,18.60
2023-01-30T11:04:31.601Z,16.50
2023-01-30T11:07:01.560Z,17.17
2023-01-30T11:09:43.482Z,14.57
2023-01-30T11:12:11.156Z,18.10
2023-01-30T11:15:00.937Z,16.57
2023-01-30T11:17:42.885Z,17.53
2023-01-30T11:20:22.770Z,16.13
2023-01-30T11:23:06.789Z,15.70
2023-01-30T11:25:49.245Z,17.20
2023-01-30T11:28:18.121Z,16.27
2023-01-30T11:30:53.079Z,17.60
2023-01-30T11:33:22.510Z,18.57
2023-01-30T11:36:20.847Z,16.50
2023-01-30T11:39:28.379Z,14.77
2023-01-30T11:42:02.240Z,15.17
2023-01-30T11:44:32.547Z,14.60
2023-01-30T11:47:08.578Z,17.27
2023-01-30T11:50:00.123Z,14.63
2023-01-30T11:52:37.829Z,16.47
2023-01-30T11:55:10.913Z,17.17
2023-01-30T11:57:51.513Z,15.67
2023-01-30T12:00:22.620Z,16.63
2023-01-30T12:02:53.920Z,17.60
2023-01-30T12:05:34.722Z,16.47
2023-01-30T12:08:40.677Z,18.67
2023-01-30T12:11:51.767Z,15.67
2023-01-30T12:14:46.991Z,18.43
2023-01-30T12:17:26.438Z,17.00
2023-01-30T12:20:33.567Z,17.93
2023-01-30T12:23:15.222Z,16.10
2023-01-30T12:26:13.860Z,17.87
2023-01-30T12:29:21.104Z,17.83
2023-01-30T12:32:28.717Z,19.07
2023-01-30T12:34:56.459Z,18.77
2023-01-30T12:38:13.695Z,17.70
2023-01-30T12:41:06.295Z,18.20
2023-01-30T12:44:08.159Z,19.23
2023-01-30T12:47:17.674Z,16.97
2023-01-30T12:50:33.650Z,17.87
2023-01-30T12:53:36.637Z,18.50
2023-01-30T12:56:29.351Z,19.63
2023-01-30T12:59:47.057Z,16.33
2023-01-30T13:02:45.661Z,19.20
2023-01-30T13:05:44.763Z,17.90
2023-01-30T13:08:58.368Z,16.57
2023-01-30T13:11:55.581Z,17.33
2023-01-30T13:18:09.465Z,15.43
2023-01-30T13:21:14.048Z,18.17
2023-01-30T13:24:26.626Z,18.23
2023-01-30T13:26:55.243Z,15.50
2023-01-30T13:29:31.271Z,16.93
2023-01-30T13:32:02.687Z,12.33
2023-01-30T13:34:50.889Z,12.70
2023-01-30T13:37:19.861Z,14.60
2023-01-30T13:39:54.757Z,15.63
2023-01-30T13:42:43.943Z,16.33
2023-01-30T13:45:36.096Z,17.57
2023-01-30T13:48:48.030Z,15.93
2023-01-30T13:51:53.728Z,14.77
2023-01-30T13:55:01.863Z,12.83
2023-01-30T13:57:43.865Z,15.53
2023-01-30T14:00:32.912Z,17.30
2023-01-30T14:03:29.180Z,14.73
2023-01-30T14:06:23.289Z,15.83
2023-01-30T14:08:55.047Z,12.27
2023-01-30T14:11:58.111Z,16.00
2023-01-30T14:14:36.593Z,16.67
2023-01-30T14:17:14.431Z,16.63
2023-01-30T14:19:58.809Z,15.43
2023-01-30T14:22:41.314Z,17.30
2023-01-30T14:25:33.804Z,18.50
2023-01-30T14:28:41.553Z,17.17
2023-01-30T14:31:09.206Z,16.07
2023-01-30T14:33:50.062Z,14.23
2023-01-30T14:36:37.419Z,18.63
2023-01-30T14:39:39.274Z,16.43
2023-01-30T14:42:20.373Z,16.30
2023-01-30T14:45:17.646Z,14.17
2023-01-30T14:47:47.259Z,17.00
2023-01-30T14:50:23.653Z,21.03
2023-01-30T14:52:56.560Z,17.40
2023-01-30T14:55:29.804Z,19.87
2023-01-30T14:58:01.669Z,17.33
2023-01-30T15:00:32.610Z,18.50
2023-01-30T15:03:08.039Z,17.53
2023-01-30T15:05:42.948Z,18.50
2023-01-30T15:08:21.542Z,18.37
2023-01-30T15:11:16.886Z,20.53
2023-01-30T15:13:58.750Z,14.40
2023-01-30T15:17:08.404Z,19.90
2023-01-30T15:20:21.008Z,18.57
2023-01-30T15:23:46.457Z,16.87
2023-01-30T15:26:57.788Z,19.60
2023-01-30T15:33:29.864Z,17.40
2023-01-30T15:35:57.966Z,18.70
2023-01-30T15:38:34.694Z,21.30
2023-01-30T15:41:06.447Z,20.77
2023-01-30T15:44:00.152Z,17.50
2023-01-30T15:46:48.349Z,20.37
2023-01-30T15:49:47.316Z,18.73
2023-01-30T15:52:18.619Z,19.73
2023-01-30T15:54:58.199Z,20.00
2023-01-30T15:57:32.905Z,22.00
2023-01-30T16:00:00.612Z,19.27
2023-01-30T16:02:34.125Z,24.53
2023-01-30T16:05:25.407Z,21.90
2023-01-30T16:07:55.058Z,22.27
2023-01-30T16:10:29.099Z,23.10
2023-01-30T16:12:58.205Z,23.60
2023-01-30T16:15:47.496Z,23.10
2023-01-30T16:18:49.694Z,24.73
2023-01-30T16:21:21.107Z,25.37
2023-01-30T16:24:06.941Z,25.83
2023-01-30T16:26:36.349Z,24.37
2023-01-30T16:29:07.662Z,23.77
2023-01-30T16:31:38.629Z,28.93
2023-01-30T16:34:06.041Z,26.73
2023-01-30T16:36:39.965Z,25.63
2023-01-30T16:39:31.649Z,25.50
2023-01-30T16:42:00.385Z,27.77
2023-01-30T16:44:29.471Z,27.93
2023-01-30T16:47:06.091Z,29.53
2023-01-30T16:49:53.939Z,31.58
2023-01-30T16:52:37.356Z,28.63
2023-01-30T16:55:08.099Z,27.23
2023-01-30T16:57:43.385Z,25.60
2023-01-30T17:00:33.871Z,25.53
2023-01-30T17:03:24.052Z,25.97
2023-01-30T17:05:51.588Z,27.10
2023-01-30T17:08:55.423Z,25.33
2023-01-30T17:11:39.619Z,28.57
2023-01-30T17:14:27.595Z,27.33
2023-01-30T17:17:07.667Z,25.03
2023-01-30T17:19:36.049Z,27.03
2023-01-30T17:22:06.924Z,29.37
2023-01-30T17:24:36.094Z,26.67
2023-01-30T17:27:04.700Z,25.93
2023-01-30T17:29:48.852Z,24.07
2023-01-30T17:32:16.517Z,24.87
2023-01-30T17:34:43.837Z,23.57
2023-01-30T17:37:16.451Z,23.43
2023-01-30T17:39:43.545Z,23.10
2023-01-30T17:42:11.709Z,23.20
2023-01-30T17:44:38.938Z,23.43
2023-01-30T17:47:06.526Z,22.23
2023-01-30T17:49:33.618Z,26.20
2023-01-30T17:52:00.674Z,23.97
2023-01-30T17:54:30.124Z,25.57
2023-01-30T17:57:04.402Z,25.50
2023-01-30T17:59:32.747Z,25.70
2023-01-30T18:02:00.414Z,24.83
2023-01-30T18:04:27.651Z,25.87
2023-01-30T18:07:02.412Z,26.47
2023-01-30T18:09:30.036Z,26.73
2023-01-30T18:11:57.810Z,25.03
2023-01-30T18:14:25.351Z,24.33
2023-01-30T18:16:52.951Z,26.40
2023-01-30T18:19:24.192Z,24.27
2023-01-30T18:21:51.575Z,25.50
2023-01-30T18:24:19.215Z,24.33
2023-01-30T18:26:47.289Z,24.33
2023-01-30T18:29:14.545Z,24.10
2023-01-30T18:31:41.761Z,23.33
2023-01-30T18:34:11.176Z,22.27
2023-01-30T18:36:39.513Z,24.57
2023-01-30T18:39:07.196Z,24.03
2023-01-30T18:41:35.436Z,23.40
2023-01-30T18:44:05.367Z,22.23
2023-01-30T18:46:32.971Z,22.57
2023-01-30T18:49:00.332Z,21.93
2023-01-30T18:51:33.989Z,22.20
2023-01-30T18:54:01.955Z,24.57
2023-01-30T18:56:33.658Z,23.30
2023-01-30T18:59:04.136Z,23.53
2023-01-30T19:01:38.944Z,22.27
2023-01-30T19:04:08.270Z,22.20
2023-01-30T19:06:37.908Z,22.73
2023-01-30T19:09:06.193Z,25.17
2023-01-30T19:11:52.182Z,23.03
2023-01-30T19:14:19.834Z,21.90
2023-01-30T19:16:46.937Z,23.60
2023-01-30T19:19:14.171Z,22.43
2023-01-30T19:21:41.316Z,23.73
2023-01-30T19:24:12.795Z,22.60
2023-01-30T19:26:40.386Z,21.47
2023-01-30T19:29:07.735Z,21.73
2023-01-30T19:31:35.282Z,22.93
2023-01-30T19:34:06.674Z,22.23
2023-01-30T19:36:35.427Z,23.27
2023-01-30T19:39:04.071Z,23.23
2023-01-30T19:41:33.526Z,24.90
2023-01-30T19:44:02.631Z,26.80
2023-01-30T19:46:30.286Z,26.57
2023-01-30T19:48:57.990Z,31.33
2023-01-30T19:51:30.920Z,34.70
2023-01-30T19:53:59.972Z,28.77
2023-01-30T19:56:28.871Z,29.30
2023-01-30T19:58:58.624Z,33.30
2023-01-30T20:01:29.855Z,36.30
2023-01-30T20:03:57.643Z,27.63
2023-01-30T20:06:33.639Z,30.53
2023-01-30T20:09:06.577Z,28.03
2023-01-30T20:11:35.713Z,25.63
2023-01-30T20:14:04.860Z,25.97
2023-01-30T20:16:32.153Z,24.77
2023-01-30T20:19:01.426Z,24.07
2023-01-30T20:21:30.511Z,23.93
2023-01-30T20:23:58.399Z,23.70
2023-01-30T20:26:29.422Z,23.90
2023-01-30T20:28:57.287Z,22.40
2023-01-30T20:31:26.424Z,21.47
2023-01-30T20:33:56.836Z,23.00
2023-01-30T20:36:26.000Z,21.40
2023-01-30T20:38:55.534Z,14.17
2023-01-30T20:41:27.655Z,18.90
2023-01-30T20:43:59.468Z,16.03
2023-01-30T20:46:29.326Z,15.13
2023-01-30T20:48:58.596Z,20.90
2023-01-30T20:51:31.651Z,24.77
2023-01-30T20:54:04.216Z,22.17
2023-01-30T20:56:45.634Z,21.90
2023-01-30T20:59:15.408Z,21.20
2023-01-30T21:01:43.160Z,20.27
2023-01-30T21:04:13.757Z,19.93
2023-01-30T21:06:45.811Z,20.60
2023-01-30T21:09:21.816Z,18.40
2023-01-30T21:11:51.462Z,17.77
2023-01-30T21:14:18.776Z,14.43
2023-01-30T21:16:46.572Z,15.77
2023-01-30T21:19:16.667Z,15.43
2023-01-30T21:21:51.181Z,15.47
2023-01-30T21:24:22.011Z,14.77
2023-01-30T21:26:49.489Z,15.33
2023-01-30T21:29:20.021Z,15.13
2023-01-30T21:31:47.691Z,14.17
2023-01-30T21:34:14.812Z,14.27
2023-01-30T21:36:42.010Z,15.20
2023-01-30T21:39:32.238Z,13.53
2023-01-30T21:42:17.947Z,14.73
2023-01-30T21:44:45.056Z,14.60
2023-01-30T21:47:12.089Z,14.90
2023-01-30T21:49:40.837Z,16.13
2023-01-30T21:52:07.905Z,16.00
2023-01-30T21:54:42.147Z,15.63
2023-01-30T21:57:09.271Z,15.40
2023-01-30T21:59:36.563Z,15.33
2023-01-30T22:02:03.788Z,12.97
2023-01-30T22:04:30.811Z,13.57
2023-01-30T22:06:57.938Z,12.93
2023-01-30T22:09:25.026Z,12.83
2023-01-30T22:11:52.113Z,11.50
2023-01-30T22:14:19.123Z,12.67
2023-01-30T22:16:46.283Z,11.80
2023-01-30T22:19:14.406Z,11.77
2023-01-30T22:21:41.595Z,11.37
2023-01-30T22:24:11.291Z,10.87
2023-01-30T22:26:38.512Z,10.47
2023-01-30T22:29:06.520Z,9.30
2023-01-30T22:31:38.738Z,9.37
2023-01-30T22:34:06.495Z,10.77
2023-01-30T22:36:37.715Z,9.20
2023-01-30T22:39:05.779Z,9.20
2023-01-30T22:41:35.290Z,9.60
2023-01-30T22:44:04.582Z,9.23
2023-01-30T22:46:37.503Z,8.67
2023-01-30T22:49:06.573Z,10.13
2023-01-30T22:51:39.814Z,10.30
2023-01-30T22:54:12.897Z,10.60
2023-01-30T22:56:42.784Z,11.07
2023-01-30T22:59:10.565Z,10.07
2023-01-30T23:01:43.216Z,11.03
2023-01-30T23:04:15.910Z,11.00
2023-01-30T23:06:43.702Z,9.50
2023-01-30T23:09:14.841Z,10.17
2023-01-30T23:12:10.312Z,9.93
2023-01-30T23:14:39.141Z,9.70
2023-01-30T23:17:26.154Z,10.13
2023-01-30T23:19:55.193Z,10.83
2023-01-30T23:22:22.571Z,11.93
2023-01-30T23:24:51.474Z,10.23
2023-01-30T23:27:19.269Z,11.27
2023-01-30T23:29:46.502Z,9.87
2023-01-30T23:32:14.976Z,10.57
2023-01-30T23:34:42.273Z,10.70
2023-01-30T23:37:09.358Z,11.07
2023-01-30T23:39:36.521Z,12.33
2023-01-30T23:42:03.828Z,11.73
2023-01-30T23:44:30.939Z,11.13
2023-01-30T23:46:58.079Z,9.97
2023-01-30T23:49:25.287Z,10.93
2023-01-30T23:51:52.389Z,11.03
2023-01-30T23:54:19.480Z,12.40
2023-01-30T23:56:46.596Z,11.97
2023-01-30T23:59:13.709Z,11.83
